This is the latest recevied weather packets stored in our database for station/object KD2RHT-13. If no packets are shown the sender has not sent any weather packets the latest 10 day(s).
| Time | Temp. | Humidity | Pressure | Rain* | Wind** | Luminosity | Snow |
|---|---|---|---|---|---|---|---|
| 1777357640 | 15° C | 61% | 1020 hPa | 0 mm | - | 0 W/m² | - |
| 1777357337 | 15° C | 61% | 1019.6 hPa | 0 mm | - | 0 W/m² | - |
| 1777357035 | 15° C | 60% | 1020 hPa | 0 mm | - | 0 W/m² | - |
| 1777356731 | 15.56° C | 60% | 1020 hPa | 0 mm | - | 0 W/m² | - |
| 1777356429 | 15.56° C | 60% | 1020 hPa | 0 mm | - | 0 W/m² | - |
| 1777356125 | 15.56° C | 59% | 1020 hPa | 0 mm | - | 0 W/m² | - |
| 1777355822 | 15° C | 59% | 1020 hPa | 0 mm | - | 0 W/m² | - |
| 1777354608 | 13.33° C | 63% | 1020 hPa | 0 mm | - | 0 W/m² | - |
| 1777354304 | 12.22° C | 68% | 1020 hPa | 0 mm | - | 0 W/m² | - |
| 1777354001 | 11.11° C | 71% | 1019.6 hPa | 0 mm | - | 0 W/m² | - |
| 1777353697 | 11.11° C | 71% | 1020 hPa | 0 mm | - | 0 W/m² | - |
| 1777353395 | 11.11° C | 71% | 1020 hPa | 0 mm | - | 0 W/m² | - |
| 1777353093 | 11.11° C | 71% | 1020 hPa | 0 mm | - | 0 W/m² | - |
| 1777352791 | 11.11° C | 71% | 1019.6 hPa | 0 mm | - | 0 W/m² | - |
| 1777352489 | 11.67° C | 70% | 1019.6 hPa | 0 mm | - | 0 W/m² | - |
| 1777352186 | 11.67° C | 69% | 1019.6 hPa | 0 mm | - | 0 W/m² | - |
| 1777351883 | 12.22° C | 69% | 1020 hPa | 0 mm | - | 0 W/m² | - |
| 1777351581 | 11.67° C | 70% | 1019.6 hPa | 0 mm | - | 0 W/m² | - |
| 1777350978 | 11.67° C | 69% | 1020 hPa | 0 mm | - | 0 W/m² | - |
| 1777350674 | 11.67° C | 69% | 1019.6 hPa | 0 mm | - | 0 W/m² | - |
| 1777350371 | 11.67° C | 71% | 1019.6 hPa | 0 mm | - | 0 W/m² | - |
| 1777350068 | 11.67° C | 72% | 1019.6 hPa | 0 mm | - | 0 W/m² | - |
| 1777349765 | 11.67° C | 72% | 1019.6 hPa | 0 mm | - | 0 W/m² | - |
| 1777349462 | 11.67° C | 71% | 1020 hPa | 0 mm | - | 0 W/m² | - |
| 1777349161 | 12.22° C | 70% | 1020 hPa | 0 mm | - | 0 W/m² | - |
* Rain latest hour (hover to see other rain measurements)
** Current wind speed in m/s (hover to see current wind gust speed)